Carroll, OH (43112)

10:43 AM EDT on September 04, 2015 (GMT -0400)
Fairfield County | | Change Station
CLOSE
Current Station
Airport
Location: Lancaster,
Elevation: 869 ft
Nearby Weather Stations

Elev 869 ft 39.76 °N, 82.66 °W | Updated 50 minutes ago

Partly Cloudy
Partly Cloudy
71 °F
Feels Like 71 °F
N
0
Wind Variable Wind from North

Today
High -- | Low -- °F
--% Chance of Precip.
Yesterday
High -- | Low -- °F
Precip. -- in
7:01 AM 7:57 PM
Waning Gibbous, 59% visible
Pressure 30.06 in
Visibility 7.0 miles
Clouds Clear
Dew Point 66 °F
Humidity 84%
Rainfall 0.00 in
Snow Depth Not available.
UV 3 out of 12
Pollen 9.90 out of 12
Air Quality Not available.
Flu Activity Not available.
METAR KLHQ 041353Z AUTO 00000KT 7SM CLR 22/19 A3008 RMK AO2 SLP178 T02170189
Pressure 30.06 in
Visibility 7.0 miles
Clouds Clear
Dew Point 66 °F
Humidity 84%
Rainfall 0.00 in
Snow Depth Not available.
UV 3 out of 12
Pollen 9.90 out of 12
Air Quality Not available.
Flu Activity Not available.
METAR KLHQ 041353Z AUTO 00000KT 7SM CLR 22/19 A3008 RMK AO2 SLP178 T02170189

10-Day Weather Forecast

×

Almanac

Astronomy

Sep. 04, 2015 Rise Set
Actual Time
Civil Twilight
Nautical Twilight
Astronomical Twilight
Moon
Length of Visible Light
Length of Day
Tomorrow will be .
, % of the Moon is Illuminated

Today's Extremes

State Highs State Lows

Community

WunderPhotos

Upload Photos

1,852,187 photos uploaded!

WunderBlogs® & News

Nearby

Air Quality

  Air Quality AQ Index Pollutant
Not available.

Snow Depth

Station Depth Elevation

Earthquake Activity

City Distance Mag. Time & Date
Minimum magnitude displayed is 2.5.

Coastal Water Temperatures

Place Temperature

Stations

Nearby Weather Stations

Station Location Temp. Windchill Dew Point Humidity Wind Precip. Elev Updated Type